Time;durP1;ratioP1;P1;durP2;ratioP2;P2;SDS_P1;SDS_P2;PMS_P1;PMS_P2;Temp;Humidity;BMP_temperature;BMP_pressure;BME280_temperature;BME280_humidity;BME280_pressure;Samples;Min_cycle;Max_cycle;Signal;HPM_P1;HPM_P2
2021/06/21 00:01:21;;;;;;;6.32;1.70;;;14.20;99.90;;;;;;5033046;28;20392;-60
2021/06/21 00:03:48;;;;;;;5.43;1.63;;;14.20;99.90;;;;;;5009042;28;20033;-61
2021/06/21 00:06:14;;;;;;;5.30;1.40;;;14.20;99.90;;;;;;5034805;28;20471;-60
2021/06/21 00:08:40;;;;;;;6.18;1.95;;;14.20;99.90;;;;;;5035054;28;20047;-61
2021/06/21 00:11:06;;;;;;;11.57;2.60;;;14.10;99.90;;;;;;5033378;28;20102;-61
2021/06/21 00:13:32;;;;;;;10.50;2.38;;;14.20;99.90;;;;;;5034379;28;20029;-61
2021/06/21 00:15:58;;;;;;;6.38;2.10;;;14.20;99.90;;;;;;5032897;28;20443;-61
2021/06/21 00:18:24;;;;;;;10.35;2.00;;;14.20;99.90;;;;;;5035044;28;20035;-61
2021/06/21 00:20:51;;;;;;;6.13;2.13;;;14.20;99.90;;;;;;5035084;28;20040;-61
2021/06/21 00:23:17;;;;;;;8.57;2.15;;;14.20;99.90;;;;;;5032213;28;20029;-61
2021/06/21 00:25:43;;;;;;;7.10;2.65;;;14.20;99.90;;;;;;5035172;28;20115;-61
2021/06/21 00:28:09;;;;;;;6.75;1.83;;;14.20;99.90;;;;;;5031572;28;20044;-61
2021/06/21 00:30:35;;;;;;;5.97;2.30;;;14.20;99.90;;;;;;5031683;28;20025;-61
2021/06/21 00:33:01;;;;;;;7.05;2.20;;;14.20;99.90;;;;;;5035574;28;20033;-61
2021/06/21 00:35:27;;;;;;;9.23;2.13;;;14.20;99.90;;;;;;5033248;28;20409;-61
2021/06/21 00:37:53;;;;;;;9.80;2.42;;;14.20;99.90;;;;;;5032857;28;20335;-61
2021/06/21 00:40:19;;;;;;;9.70;2.63;;;14.20;99.90;;;;;;5034802;28;20344;-61
2021/06/21 00:42:46;;;;;;;8.23;2.28;;;14.30;99.90;;;;;;5015812;28;20075;-61
2021/06/21 00:45:16;;;;;;;10.73;2.88;;;14.20;99.90;;;;;;5031959;28;20029;-60
2021/06/21 00:47:41;;;;;;;7.60;2.25;;;14.20;99.90;;;;;;5035113;28;20455;-61
2021/06/21 00:50:08;;;;;;;8.05;2.45;;;14.20;99.90;;;;;;5035354;28;20142;-60
2021/06/21 00:52:34;;;;;;;9.35;2.17;;;14.20;99.90;;;;;;5037994;28;20142;-60
2021/06/21 00:55:01;;;;;;;8.68;2.47;;;14.30;99.90;;;;;;5036985;28;20021;-60
2021/06/21 00:57:28;;;;;;;13.48;2.85;;;14.20;99.90;;;;;;5021860;28;20476;-61
2021/06/21 00:59:58;;;;;;;10.43;2.55;;;14.20;99.90;;;;;;5036078;28;20106;-61
2021/06/21 01:02:25;;;;;;;5.05;1.92;;;14.20;99.90;;;;;;5019875;28;20464;-61
2021/06/21 01:04:51;;;;;;;7.05;2.33;;;14.20;99.90;;;;;;5035286;28;20028;-60
2021/06/21 01:07:17;;;;;;;12.68;2.75;;;14.20;99.90;;;;;;5037548;28;20446;-61
2021/06/21 01:09:43;;;;;;;9.98;2.53;;;14.20;99.90;;;;;;5039609;28;20039;-61
2021/06/21 01:12:15;;;;;;;10.73;2.88;;;14.20;99.90;;;;;;5020841;28;20029;-60
2021/06/21 01:14:49;;;;;;;10.55;2.60;;;14.20;99.90;;;;;;5038624;28;20243;-60
2021/06/21 01:17:38;;;;;;;10.20;2.60;;;14.20;99.90;;;;;;5037769;28;20106;-61
2021/06/21 01:20:35;;;;;;;7.72;2.67;;;14.30;99.90;;;;;;5035703;28;20025;-61
2021/06/21 01:23:39;;;;;;;9.93;3.08;;;14.30;99.90;;;;;;5038218;28;20542;-61
2021/06/21 01:26:21;;;;;;;9.35;3.17;;;14.30;99.90;;;;;;5032020;28;20173;-61
2021/06/21 01:28:59;;;;;;;11.45;2.42;;;14.30;99.90;;;;;;5036182;28;20080;-60
2021/06/21 01:31:44;;;;;;;10.23;2.45;;;14.30;99.90;;;;;;5035706;28;20040;-60
2021/06/21 01:34:10;;;;;;;12.55;3.22;;;14.30;99.90;;;;;;5035307;28;20430;-61
2021/06/21 01:36:36;;;;;;;16.75;2.75;;;14.30;99.90;;;;;;5036434;28;20063;-61
2021/06/21 01:39:03;;;;;;;15.05;3.55;;;14.30;99.90;;;;;;5037110;28;20028;-60
2021/06/21 01:41:33;;;;;;;8.90;2.92;;;14.30;99.90;;;;;;5037279;28;20081;-60
2021/06/21 01:43:59;;;;;;;9.90;2.97;;;14.30;99.90;;;;;;5037852;28;20028;-60
2021/06/21 01:46:30;;;;;;;8.63;3.25;;;14.30;99.90;;;;;;5037096;28;20033;-61
2021/06/21 01:49:01;;;;;;;10.65;3.20;;;14.20;99.90;;;;;;5034544;28;20056;-60
2021/06/21 01:51:30;;;;;;;11.80;3.10;;;14.20;99.90;;;;;;5035747;28;20033;-61
2021/06/21 01:53:59;;;;;;;10.83;3.20;;;14.20;99.90;;;;;;5034596;28;20392;-61
2021/06/21 01:56:41;;;;;;;12.35;2.95;;;14.20;99.90;;;;;;5033844;28;20438;-60
2021/06/21 01:59:08;;;;;;;10.15;3.28;;;14.20;99.90;;;;;;5036847;28;20028;-61
2021/06/21 02:01:36;;;;;;;14.27;3.33;;;14.20;99.90;;;;;;5034807;28;20156;-60
2021/06/21 02:04:06;;;;;;;11.52;3.10;;;14.30;99.90;;;;;;5038222;28;20487;-60
2021/06/21 02:06:34;;;;;;;14.40;3.70;;;14.30;99.90;;;;;;5036258;28;20791;-61
2021/06/21 02:09:06;;;;;;;9.45;2.65;;;14.20;99.90;;;;;;5036664;28;20109;-61
2021/06/21 02:11:32;;;;;;;11.18;2.80;;;14.20;99.90;;;;;;5012118;28;20033;-61
2021/06/21 02:13:58;;;;;;;7.93;2.75;;;14.20;99.90;;;;;;5038146;28;20028;-61
2021/06/21 02:16:26;;;;;;;12.65;2.70;;;14.20;99.90;;;;;;5034850;28;20110;-61
2021/06/21 02:18:53;;;;;;;9.43;3.13;;;14.20;99.90;;;;;;5017582;28;20048;-61
2021/06/21 02:21:20;;;;;;;10.57;2.83;;;14.20;99.90;;;;;;5037547;28;20029;-61
2021/06/21 02:23:48;;;;;;;13.15;3.05;;;14.20;99.90;;;;;;5035143;28;20513;-61
2021/06/21 02:26:14;;;;;;;11.27;3.55;;;14.10;99.90;;;;;;5037124;28;20110;-60
2021/06/21 02:28:41;;;;;;;13.68;3.33;;;14.10;99.90;;;;;;5033872;28;20114;-60
2021/06/21 02:31:08;;;;;;;8.77;2.97;;;14.20;99.90;;;;;;5037111;28;20029;-61
2021/06/21 02:33:35;;;;;;;9.02;2.60;;;14.10;99.90;;;;;;5035406;28;20123;-61
2021/06/21 02:36:02;;;;;;;13.40;3.03;;;14.10;99.90;;;;;;5034688;28;20056;-61
2021/06/21 02:38:28;;;;;;;14.77;3.40;;;14.10;99.90;;;;;;5034500;28;20496;-60
2021/06/21 02:40:53;;;;;;;8.05;3.03;;;14.10;99.90;;;;;;5035239;28;20132;-61
2021/06/21 02:43:19;;;;;;;8.52;2.75;;;14.10;99.90;;;;;;5035612;28;20025;-61
2021/06/21 02:45:45;;;;;;;11.50;2.85;;;14.10;99.90;;;;;;5016061;28;20233;-61
2021/06/21 02:48:12;;;;;;;11.50;2.33;;;14.10;99.90;;;;;;5032138;28;20672;-61
2021/06/21 02:50:45;;;;;;;12.02;3.05;;;14.10;99.90;;;;;;5035821;28;20725;-60
2021/06/21 02:53:43;;;;;;;9.70;2.67;;;14.10;99.90;;;;;;5016381;28;20060;-60
2021/06/21 02:56:31;;;;;;;11.32;3.30;;;14.10;99.90;;;;;;5035702;28;20792;-61
2021/06/21 02:59:03;;;;;;;14.93;3.25;;;14.10;99.90;;;;;;5034749;28;20064;-61
2021/06/21 03:01:30;;;;;;;11.07;2.83;;;14.00;99.90;;;;;;5032891;28;20021;-60
2021/06/21 03:03:59;;;;;;;6.47;2.40;;;14.00;99.90;;;;;;5034406;28;20029;-60
2021/06/21 03:06:26;;;;;;;11.13;2.85;;;14.10;99.90;;;;;;5034693;28;20025;-61
2021/06/21 03:08:54;;;;;;;11.45;2.85;;;14.10;99.90;;;;;;5034618;28;20028;-60
2021/06/21 03:11:20;;;;;;;9.35;2.95;;;14.00;99.90;;;;;;5036518;28;20548;-60
2021/06/21 03:13:48;;;;;;;10.73;2.90;;;14.00;99.90;;;;;;5033086;28;20431;-61
2021/06/21 03:16:15;;;;;;;11.18;2.78;;;14.00;99.90;;;;;;5037632;28;20028;-61
2021/06/21 03:18:41;;;;;;;10.93;3.00;;;14.00;99.90;;;;;;5033598;28;20583;-61
2021/06/21 03:21:08;;;;;;;13.77;3.28;;;14.10;99.90;;;;;;5033536;28;20037;-60
2021/06/21 03:23:34;;;;;;;7.10;3.05;;;14.00;99.90;;;;;;5035447;28;20033;-61
2021/06/21 03:26:02;;;;;;;10.93;3.22;;;14.00;99.90;;;;;;5033278;28;20051;-61
2021/06/21 03:28:29;;;;;;;12.60;2.88;;;14.00;99.90;;;;;;5032175;28;20041;-60
2021/06/21 03:31:03;;;;;;;10.23;2.80;;;14.00;99.90;;;;;;5034239;28;21147;-61
2021/06/21 03:33:29;;;;;;;8.70;2.45;;;13.90;99.90;;;;;;5033656;28;20366;-61
2021/06/21 03:35:55;;;;;;;11.65;2.90;;;13.90;99.90;;;;;;5033336;28;20040;-60
2021/06/21 03:38:24;;;;;;;16.55;3.95;;;13.90;99.90;;;;;;5034920;28;20037;-60
2021/06/21 03:40:51;;;;;;;13.80;3.15;;;13.90;99.90;;;;;;5035010;28;20054;-60
2021/06/21 03:43:19;;;;;;;13.10;3.20;;;13.90;99.90;;;;;;5035644;28;20584;-60
2021/06/21 03:45:46;;;;;;;12.18;3.40;;;13.90;99.90;;;;;;5034874;28;20075;-60
2021/06/21 03:48:12;;;;;;;10.57;3.28;;;13.90;99.90;;;;;;5028962;28;20037;-60
2021/06/21 03:50:38;;;;;;;6.45;2.38;;;13.90;99.90;;;;;;5031314;28;20029;-60
2021/06/21 03:53:06;;;;;;;9.10;2.67;;;13.90;99.90;;;;;;5033839;28;20029;-61
2021/06/21 03:55:32;;;;;;;7.20;3.00;;;13.90;99.90;;;;;;5030665;28;20737;-61
2021/06/21 03:57:59;;;;;;;10.25;2.80;;;13.80;99.90;;;;;;5031107;28;20036;-60
2021/06/21 04:00:29;;;;;;;8.43;2.38;;;13.90;99.90;;;;;;5029920;28;20055;-69
2021/06/21 04:02:58;;;;;;;10.57;2.63;;;13.90;99.90;;;;;;5032063;28;20274;-69
2021/06/21 04:05:25;;;;;;;15.35;2.88;;;13.90;99.90;;;;;;5031480;28;20033;-68
2021/06/21 04:07:52;;;;;;;10.38;2.80;;;13.90;99.90;;;;;;5032015;28;20045;-68
2021/06/21 04:10:20;;;;;;;9.02;2.83;;;13.90;99.90;;;;;;5031445;28;20650;-68
2021/06/21 04:12:47;;;;;;;13.70;2.95;;;13.90;99.90;;;;;;5035709;28;20032;-68
2021/06/21 04:15:16;;;;;;;8.93;2.55;;;13.90;99.90;;;;;;5031714;28;20029;-68
2021/06/21 04:17:42;;;;;;;10.60;2.75;;;13.90;99.90;;;;;;5035076;28;20036;-68
2021/06/21 04:20:17;;;;;;;10.52;3.03;;;13.90;99.90;;;;;;5034414;28;20086;-68
2021/06/21 04:22:43;;;;;;;13.60;3.30;;;14.00;99.90;;;;;;5033895;28;20043;-68
2021/06/21 04:25:12;;;;;;;12.13;3.15;;;14.00;99.90;;;;;;5033613;28;20376;-68
2021/06/21 04:27:39;;;;;;;12.52;4.03;;;14.10;99.90;;;;;;5032769;28;20083;-68
2021/06/21 04:30:07;;;;;;;13.23;3.92;;;14.10;99.90;;;;;;5033763;28;20544;-68
2021/06/21 04:32:33;;;;;;;10.55;3.33;;;14.10;99.90;;;;;;5009562;28;20029;-68
2021/06/21 04:34:59;;;;;;;15.40;3.35;;;14.10;99.90;;;;;;5034703;28;20447;-68
2021/06/21 04:37:25;;;;;;;10.88;3.10;;;14.10;99.90;;;;;;5032785;28;20471;-68
2021/06/21 04:39:51;;;;;;;12.93;3.20;;;14.20;99.90;;;;;;5034066;28;20029;-68
2021/06/21 04:42:16;;;;;;;16.27;3.70;;;14.10;99.90;;;;;;5035176;28;20047;-68
2021/06/21 04:44:42;;;;;;;10.15;3.45;;;14.20;99.90;;;;;;5031137;28;20120;-68
2021/06/21 04:47:08;;;;;;;12.98;3.28;;;14.20;99.90;;;;;;5036659;28;20111;-68
2021/06/21 04:49:34;;;;;;;9.52;3.08;;;14.30;99.90;;;;;;5029744;28;20033;-68
2021/06/21 04:52:00;;;;;;;12.77;3.30;;;14.30;99.90;;;;;;5024386;28;20024;-68
2021/06/21 04:54:26;;;;;;;14.75;3.45;;;14.40;99.90;;;;;;5030188;28;20044;-69
2021/06/21 04:56:52;;;;;;;13.45;3.05;;;14.40;99.90;;;;;;5035009;28;20332;-68
2021/06/21 04:59:17;;;;;;;12.10;3.05;;;14.50;99.90;;;;;;5034518;28;20590;-68
2021/06/21 05:01:43;;;;;;;11.57;3.47;;;14.60;99.90;;;;;;5030984;28;20323;-68
2021/06/21 05:04:09;;;;;;;11.82;3.40;;;14.60;99.90;;;;;;5033037;28;20048;-68
2021/06/21 05:06:36;;;;;;;13.10;3.88;;;14.70;99.90;;;;;;5034013;28;20142;-68
2021/06/21 05:09:04;;;;;;;14.60;3.83;;;14.70;99.90;;;;;;5033841;28;20048;-68
2021/06/21 05:11:30;;;;;;;13.65;3.30;;;14.80;99.90;;;;;;5034490;28;20029;-69
2021/06/21 05:13:56;;;;;;;13.80;3.30;;;14.80;99.90;;;;;;5034793;28;20033;-69
2021/06/21 05:16:22;;;;;;;18.48;4.05;;;14.80;99.90;;;;;;5035186;28;20035;-69
2021/06/21 05:18:48;;;;;;;14.13;3.85;;;14.80;99.90;;;;;;5035546;28;20032;-69
2021/06/21 05:21:14;;;;;;;16.45;4.30;;;14.80;99.90;;;;;;5035609;28;20025;-68
2021/06/21 05:23:40;;;;;;;14.85;3.60;;;14.80;99.90;;;;;;5035669;28;20551;-69
2021/06/21 05:26:05;;;;;;;15.60;3.45;;;14.80;99.90;;;;;;5033609;28;20065;-68
2021/06/21 05:28:31;;;;;;;14.00;4.13;;;14.90;99.90;;;;;;5035878;28;20514;-69
2021/06/21 05:30:57;;;;;;;16.13;4.80;;;14.90;99.90;;;;;;5035858;28;20508;-69
2021/06/21 05:33:23;;;;;;;13.23;3.95;;;14.90;99.90;;;;;;5035662;28;20063;-68
2021/06/21 05:35:49;;;;;;;17.70;4.05;;;15.00;99.90;;;;;;5035553;28;20311;-68
2021/06/21 05:38:15;;;;;;;23.08;5.10;;;15.00;99.90;;;;;;5037463;28;20186;-68
2021/06/21 05:40:41;;;;;;;21.48;5.57;;;15.00;99.90;;;;;;5037493;28;20032;-68
2021/06/21 05:43:06;;;;;;;22.77;4.90;;;15.10;99.90;;;;;;5038191;28;20029;-68
2021/06/21 05:45:32;;;;;;;16.50;4.90;;;15.00;99.90;;;;;;5039529;28;20025;-69
2021/06/21 05:47:58;;;;;;;16.00;4.80;;;15.00;99.90;;;;;;5039368;28;20033;-69
2021/06/21 05:50:24;;;;;;;12.23;4.28;;;15.00;99.90;;;;;;5036308;28;20648;-69
2021/06/21 05:52:51;;;;;;;19.92;5.30;;;15.00;99.90;;;;;;5037060;28;20033;-69
2021/06/21 05:55:19;;;;;;;15.68;4.72;;;15.00;99.90;;;;;;5036362;28;20035;-69
2021/06/21 05:57:45;;;;;;;21.65;5.22;;;15.00;99.90;;;;;;5037518;28;20037;-68
2021/06/21 06:00:12;;;;;;;18.73;4.72;;;15.00;99.90;;;;;;5038487;28;20052;-69
2021/06/21 06:02:38;;;;;;;14.05;4.53;;;14.90;99.90;;;;;;5038665;28;20083;-69
2021/06/21 06:05:04;;;;;;;15.80;5.10;;;15.00;99.90;;;;;;5038207;28;20056;-68
2021/06/21 06:07:30;;;;;;;18.30;5.13;;;15.00;99.90;;;;;;5039178;28;20113;-69
2021/06/21 06:09:57;;;;;;;20.85;6.78;;;15.00;99.90;;;;;;5037609;28;20624;-69
2021/06/21 06:12:24;;;;;;;21.33;5.22;;;15.00;99.90;;;;;;5038833;28;20070;-68
2021/06/21 06:14:51;;;;;;;19.65;5.40;;;15.00;99.90;;;;;;5038105;28;20179;-69
2021/06/21 06:17:17;;;;;;;22.55;5.53;;;15.10;99.90;;;;;;5037741;28;20360;-69
2021/06/21 06:19:42;;;;;;;15.55;5.35;;;15.10;99.90;;;;;;5039193;28;20176;-69
2021/06/21 06:22:08;;;;;;;17.10;5.55;;;15.10;99.90;;;;;;5036395;28;20013;-69
2021/06/21 06:24:35;;;;;;;16.95;4.32;;;15.10;99.90;;;;;;5036376;28;20040;-69
2021/06/21 06:27:00;;;;;;;17.48;4.75;;;15.20;99.90;;;;;;5036092;28;20554;-69
2021/06/21 06:29:30;;;;;;;18.15;5.82;;;15.20;99.90;;;;;;5037671;28;20091;-68
2021/06/21 06:31:56;;;;;;;17.13;4.80;;;15.20;99.90;;;;;;5034955;28;20029;-68
2021/06/21 06:34:23;;;;;;;17.98;5.22;;;15.20;99.90;;;;;;5035208;28;20457;-69
2021/06/21 06:36:49;;;;;;;17.98;5.32;;;15.30;99.90;;;;;;5035547;28;20025;-69
2021/06/21 06:39:15;;;;;;;21.48;5.43;;;15.30;99.90;;;;;;5037139;28;20029;-69
2021/06/21 06:41:41;;;;;;;16.30;5.10;;;15.40;99.90;;;;;;5020638;28;20097;-68
2021/06/21 06:44:07;;;;;;;13.55;4.07;;;15.40;99.90;;;;;;5037556;28;20103;-69
2021/06/21 06:46:33;;;;;;;25.23;4.90;;;15.50;99.90;;;;;;5037384;28;20028;-68
2021/06/21 06:49:00;;;;;;;20.08;4.90;;;15.50;99.90;;;;;;5037450;28;20051;-69
2021/06/21 06:51:29;;;;;;;17.60;4.80;;;15.50;99.90;;;;;;5038798;28;20040;-69
2021/06/21 06:54:06;;;;;;;15.10;4.30;;;15.50;99.90;;;;;;5037869;28;20449;-69
2021/06/21 06:59:17;;;;;;;18.65;4.88;;;15.50;99.90;;;;;;5035897;28;20025;-68
2021/06/21 07:01:44;;;;;;;24.15;5.22;;;15.60;99.90;;;;;;5037691;28;20493;-69
2021/06/21 07:04:10;;;;;;;22.20;5.45;;;15.70;99.90;;;;;;5037374;28;20151;-68
2021/06/21 07:06:37;;;;;;;14.15;4.32;;;15.80;99.90;;;;;;5036906;28;20028;-69
2021/06/21 07:09:03;;;;;;;30.30;8.18;;;15.80;99.90;;;;;;5038073;28;20102;-68
2021/06/21 07:11:29;;;;;;;13.77;4.22;;;15.80;99.90;;;;;;5019001;28;20112;-69
2021/06/21 07:13:55;;;;;;;13.68;3.90;;;15.80;99.90;;;;;;5036164;28;20039;-68
2021/06/21 07:16:21;;;;;;;19.42;5.25;;;15.90;99.90;;;;;;5035721;28;20050;-68
2021/06/21 07:18:47;;;;;;;20.40;4.82;;;16.00;99.90;;;;;;5037050;28;20523;-69
2021/06/21 07:21:13;;;;;;;14.82;4.13;;;16.00;99.90;;;;;;5037563;28;20029;-69
2021/06/21 07:23:39;;;;;;;15.35;4.00;;;16.10;99.90;;;;;;5037538;28;20033;-69
2021/06/21 07:26:08;;;;;;;16.35;4.03;;;16.20;99.90;;;;;;5035918;28;20063;-68
2021/06/21 07:28:34;;;;;;;16.58;4.15;;;16.30;99.90;;;;;;5037206;28;20048;-69
2021/06/21 07:31:01;;;;;;;14.82;4.13;;;16.40;99.90;;;;;;5037410;28;20138;-69
2021/06/21 07:33:26;;;;;;;12.05;3.47;;;16.40;99.90;;;;;;5036820;28;20024;-68
2021/06/21 07:35:52;;;;;;;16.10;4.20;;;16.30;99.90;;;;;;5036972;28;20137;-68
2021/06/21 07:38:19;;;;;;;12.48;3.75;;;16.20;99.90;;;;;;5018184;28;20033;-68
2021/06/21 07:40:45;;;;;;;10.98;3.30;;;16.10;99.90;;;;;;5037276;28;20373;-68
2021/06/21 07:43:11;;;;;;;12.35;3.38;;;16.00;99.90;;;;;;5018597;28;20508;-68
2021/06/21 07:45:37;;;;;;;13.48;3.30;;;15.90;99.90;;;;;;5037697;28;20123;-68
2021/06/21 07:48:04;;;;;;;13.73;3.65;;;15.90;99.90;;;;;;5035470;28;20032;-68
2021/06/21 07:50:31;;;;;;;11.23;2.97;;;16.00;99.90;;;;;;5035468;28;20461;-68
2021/06/21 07:52:58;;;;;;;9.75;3.00;;;16.00;99.90;;;;;;5036687;28;20052;-68
2021/06/21 07:55:27;;;;;;;8.98;3.33;;;16.10;99.90;;;;;;5036344;28;20163;-68
2021/06/21 07:57:56;;;;;;;8.27;2.97;;;16.20;99.90;;;;;;5035982;28;20029;-68
2021/06/21 08:00:24;;;;;;;15.05;3.65;;;16.20;99.90;;;;;;5036641;28;20265;-68
2021/06/21 08:02:54;;;;;;;11.57;2.95;;;16.30;99.90;;;;;;5036584;28;20091;-68
2021/06/21 08:05:21;;;;;;;13.00;3.15;;;16.30;99.90;;;;;;5033108;28;20036;-68
2021/06/21 08:07:47;;;;;;;13.05;4.05;;;16.40;99.90;;;;;;5036384;28;20155;-68
2021/06/21 08:10:14;;;;;;;13.40;3.50;;;16.40;99.90;;;;;;5035979;28;20021;-68
2021/06/21 08:12:41;;;;;;;12.90;3.10;;;16.50;99.90;;;;;;5036802;28;20040;-69
2021/06/21 08:15:10;;;;;;;11.80;2.95;;;16.60;99.90;;;;;;5035478;28;20043;-68
2021/06/21 08:17:36;;;;;;;9.57;3.08;;;16.60;99.90;;;;;;5036363;28;20033;-68
2021/06/21 08:20:04;;;;;;;13.60;3.45;;;16.50;99.90;;;;;;5036696;28;20108;-68
2021/06/21 08:22:30;;;;;;;15.63;3.60;;;16.50;99.90;;;;;;5036673;28;20496;-68
2021/06/21 08:24:56;;;;;;;12.85;4.05;;;16.50;99.90;;;;;;5034785;28;20035;-69
2021/06/21 08:27:22;;;;;;;10.07;3.45;;;16.60;99.90;;;;;;5036344;28;20075;-68
2021/06/21 08:29:48;;;;;;;7.78;3.20;;;16.70;99.90;;;;;;5034760;28;20025;-68
2021/06/21 08:32:14;;;;;;;9.73;3.13;;;16.80;99.90;;;;;;5036223;28;20087;-68
2021/06/21 08:34:40;;;;;;;12.50;3.42;;;16.80;99.90;;;;;;5018916;28;20267;-69
2021/06/21 08:37:06;;;;;;;10.40;3.40;;;16.70;99.90;;;;;;5034663;28;20039;-68
2021/06/21 08:39:33;;;;;;;12.57;3.33;;;16.60;99.90;;;;;;5034768;28;20025;-69
2021/06/21 08:41:59;;;;;;;13.48;3.00;;;16.70;99.90;;;;;;5034377;28;20033;-68
2021/06/21 08:44:26;;;;;;;16.23;3.75;;;16.80;99.90;;;;;;5036480;28;20029;-69
2021/06/21 08:46:52;;;;;;;12.25;3.50;;;17.00;99.90;;;;;;5036928;28;20033;-68
2021/06/21 08:49:19;;;;;;;11.45;2.97;;;17.10;99.90;;;;;;5016814;28;20327;-69
2021/06/21 08:51:46;;;;;;;11.15;4.15;;;17.20;99.90;;;;;;5035934;28;20025;-68
2021/06/21 08:54:12;;;;;;;11.55;3.45;;;17.20;99.90;;;;;;5035944;28;20357;-68
2021/06/21 08:56:38;;;;;;;14.48;3.15;;;17.10;99.90;;;;;;5013419;28;20322;-68
2021/06/21 08:59:06;;;;;;;12.27;2.92;;;17.10;99.90;;;;;;5034430;28;20033;-68
2021/06/21 09:01:32;;;;;;;11.02;2.75;;;17.20;99.90;;;;;;5034957;28;20120;-68
2021/06/21 09:04:00;;;;;;;6.40;2.70;;;17.20;99.90;;;;;;5035800;28;20029;-68
2021/06/21 09:06:35;;;;;;;11.13;3.72;;;17.30;99.90;;;;;;5036162;28;20539;-68
2021/06/21 09:09:01;;;;;;;9.40;2.75;;;17.60;99.90;;;;;;5034835;28;20115;-68
2021/06/21 09:11:45;;;;;;;8.25;3.08;;;17.60;99.90;;;;;;5035939;28;20025;-68
2021/06/21 09:14:26;;;;;;;10.93;3.47;;;17.40;99.90;;;;;;5038000;28;20025;-68
2021/06/21 09:16:54;;;;;;;8.73;3.00;;;17.20;99.90;;;;;;5039630;28;20028;-68
2021/06/21 09:19:20;;;;;;;8.57;3.05;;;17.00;99.90;;;;;;5039489;28;20032;-69
2021/06/21 09:21:46;;;;;;;11.10;3.30;;;17.00;99.90;;;;;;5039036;28;20894;-68
2021/06/21 09:24:23;;;;;;;10.95;2.92;;;17.00;99.90;;;;;;5038469;28;20567;-68
2021/06/21 09:26:53;;;;;;;12.75;3.05;;;17.10;99.90;;;;;;5039233;28;20057;-69
2021/06/21 09:29:41;;;;;;;10.07;2.90;;;17.20;99.90;;;;;;5038333;28;20037;-68
2021/06/21 09:32:08;;;;;;;7.63;3.15;;;17.20;99.90;;;;;;5020955;28;20612;-68
2021/06/21 09:34:34;;;;;;;9.05;3.13;;;17.50;99.90;;;;;;5039127;28;20028;-68
2021/06/21 09:37:08;;;;;;;10.27;3.10;;;17.50;99.90;;;;;;5020349;28;20067;-68
2021/06/21 09:39:39;;;;;;;8.40;2.58;;;17.70;99.90;;;;;;5039770;28;20036;-68
2021/06/21 09:42:07;;;;;;;7.93;2.70;;;17.80;99.90;;;;;;5039010;28;20151;-68
2021/06/21 09:44:40;;;;;;;16.48;3.38;;;17.90;99.90;;;;;;5019962;28;20072;-68
2021/06/21 09:47:28;;;;;;;17.30;5.20;;;17.90;99.90;;;;;;5039655;28;20056;-68
2021/06/21 09:50:13;;;;;;;10.70;2.92;;;18.00;99.90;;;;;;5038223;28;20033;-68
2021/06/21 09:52:42;;;;;;;12.73;4.05;;;17.80;99.90;;;;;;5038799;28;20052;-68
2021/06/21 09:55:44;;;;;;;11.25;3.00;;;17.70;99.90;;;;;;5038610;28;20510;-68
2021/06/21 09:58:15;;;;;;;8.40;2.45;;;17.60;99.90;;;;;;5039070;28;20039;-68
2021/06/21 10:00:46;;;;;;;12.38;3.55;;;17.20;99.90;;;;;;5039200;28;20392;-68
2021/06/21 10:03:14;;;;;;;14.07;2.92;;;17.10;99.90;;;;;;5039511;28;20464;-68
2021/06/21 10:05:44;;;;;;;11.65;2.97;;;17.00;99.90;;;;;;5038259;28;20091;-68
2021/06/21 10:08:12;;;;;;;14.10;4.13;;;16.90;99.90;;;;;;5038543;28;20049;-68
2021/06/21 10:10:39;;;;;;;17.40;3.85;;;16.80;99.90;;;;;;5037454;28;20037;-68
2021/06/21 10:13:05;;;;;;;11.68;3.33;;;16.80;99.90;;;;;;5038477;28;20148;-68
2021/06/21 10:15:32;;;;;;;11.00;3.45;;;16.70;99.90;;;;;;5038817;28;20057;-69
2021/06/21 10:17:58;;;;;;;13.25;3.53;;;16.70;99.90;;;;;;5028676;28;20029;-68
2021/06/21 10:20:24;;;;;;;11.75;3.53;;;16.70;99.90;;;;;;5038750;28;20020;-68
2021/06/21 10:22:50;;;;;;;14.40;3.47;;;16.80;99.90;;;;;;5038286;28;20449;-68
2021/06/21 10:25:16;;;;;;;12.90;3.40;;;16.90;99.90;;;;;;5027479;28;20036;-68
2021/06/21 10:27:45;;;;;;;13.30;3.20;;;16.90;99.90;;;;;;5037919;28;20040;-68
2021/06/21 10:30:18;;;;;;;12.18;3.70;;;17.00;99.90;;;;;;5038671;28;20480;-68
2021/06/21 10:32:49;;;;;;;10.18;3.42;;;17.10;99.90;;;;;;5037583;28;20033;-68
2021/06/21 10:35:17;;;;;;;10.00;3.03;;;17.20;99.90;;;;;;5020875;28;20029;-68
2021/06/21 10:38:00;;;;;;;9.73;3.10;;;17.30;99.90;;;;;;5034761;28;20492;-68
2021/06/21 10:40:26;;;;;;;15.15;2.85;;;17.60;99.90;;;;;;5036566;28;20045;-68
2021/06/21 10:42:52;;;;;;;10.73;2.92;;;17.80;99.90;;;;;;5038460;28;20032;-68
2021/06/21 10:45:26;;;;;;;8.80;2.70;;;17.80;99.90;;;;;;5038404;28;20033;-68
2021/06/21 10:48:10;;;;;;;12.55;2.90;;;17.90;99.90;;;;;;5036775;28;20559;-68
2021/06/21 10:50:51;;;;;;;15.43;3.33;;;17.80;99.90;;;;;;5036991;28;20032;-68
2021/06/21 10:53:17;;;;;;;12.65;3.53;;;17.70;99.90;;;;;;5038531;28;20028;-68
2021/06/21 10:55:48;;;;;;;12.85;2.78;;;17.70;99.90;;;;;;5037372;28;20427;-68
2021/06/21 10:58:20;;;;;;;12.05;2.85;;;17.60;99.90;;;;;;5036897;28;20078;-68
2021/06/21 11:00:48;;;;;;;10.55;2.40;;;17.50;99.90;;;;;;5036435;28;20028;-68
2021/06/21 11:03:24;;;;;;;11.80;3.08;;;17.50;99.90;;;;;;5037342;28;20024;-68
2021/06/21 11:05:54;;;;;;;12.00;3.35;;;17.50;99.90;;;;;;5036217;28;20115;-68
2021/06/21 11:08:25;;;;;;;11.20;3.65;;;17.50;99.90;;;;;;5037394;28;20765;-68
2021/06/21 11:10:55;;;;;;;11.63;3.20;;;17.70;99.90;;;;;;5017277;28;20128;-68
2021/06/21 11:13:33;;;;;;;12.13;2.78;;;17.80;99.90;;;;;;5037726;28;20033;-67
2021/06/21 11:16:19;;;;;;;11.13;3.22;;;17.80;99.90;;;;;;5036364;28;20112;-68
2021/06/21 11:19:09;;;;;;;11.65;3.28;;;17.80;99.90;;;;;;5037616;28;20494;-68
2021/06/21 11:21:54;;;;;;;;;;;17.80;99.90;;;;;;5037580;28;20423;-68
2021/06/21 11:24:39;;;;;;;14.77;3.20;;;17.90;99.90;;;;;;5035432;28;19962;-68
2021/06/21 11:27:07;;;;;;;11.85;3.25;;;17.80;99.90;;;;;;5037624;28;20041;-68
2021/06/21 11:29:35;;;;;;;8.82;2.53;;;17.80;99.90;;;;;;5036871;28;20037;-68
2021/06/21 11:32:03;;;;;;;10.82;2.90;;;17.90;99.90;;;;;;5035443;28;20119;-68
2021/06/21 11:34:46;;;;;;;9.00;3.47;;;17.90;99.90;;;;;;5034316;28;20475;-68
2021/06/21 11:37:30;;;;;;;12.40;3.03;;;17.90;99.90;;;;;;5036765;28;20400;-68
2021/06/21 11:40:27;;;;;;;11.82;3.30;;;17.80;99.90;;;;;;5036716;28;20487;-68
2021/06/21 11:43:02;;;;;;;12.65;3.20;;;17.80;99.90;;;;;;5037388;28;20040;-68
2021/06/21 11:45:51;;;;;;;13.55;3.83;;;17.80;99.90;;;;;;5036335;28;20021;-68
2021/06/21 11:48:33;;;;;;;14.23;3.70;;;17.70;99.90;;;;;;5035619;28;20037;-68
2021/06/21 11:51:13;;;;;;;9.35;2.85;;;17.80;99.90;;;;;;5037512;28;20112;-68
2021/06/21 11:53:47;;;;;;;11.75;2.88;;;17.90;99.90;;;;;;5037557;28;20060;-68
2021/06/21 11:56:15;;;;;;;12.70;2.95;;;17.80;99.90;;;;;;5034561;28;20036;-68
2021/06/21 11:58:41;;;;;;;15.15;3.53;;;17.60;99.90;;;;;;5036216;28;20075;-68
2021/06/21 12:01:18;;;;;;;10.05;3.20;;;17.40;99.90;;;;;;5035862;28;20033;-68
2021/06/21 12:03:44;;;;;;;9.63;2.88;;;17.20;99.90;;;;;;5036859;28;20033;-68
2021/06/21 12:06:17;;;;;;;12.63;3.20;;;17.20;99.90;;;;;;5035630;28;20055;-68
2021/06/21 12:08:44;;;;;;;16.90;3.65;;;17.20;99.90;;;;;;5036382;28;20801;-68
2021/06/21 12:11:21;;;;;;;10.18;3.10;;;17.10;99.90;;;;;;5036596;28;20366;-68
2021/06/21 12:14:05;;;;;;;11.77;3.70;;;17.10;99.90;;;;;;5035978;28;20029;-68
2021/06/21 12:16:36;;;;;;;7.50;3.05;;;17.10;99.90;;;;;;5036887;28;20140;-68
2021/06/21 12:19:03;;;;;;;11.73;4.03;;;16.90;99.90;;;;;;5011082;28;20029;-68
2021/06/21 12:21:33;;;;;;;15.45;4.13;;;16.80;99.90;;;;;;5036747;28;20103;-68
2021/06/21 12:24:28;;;;;;;8.55;3.58;;;16.80;99.90;;;;;;5035726;28;20068;-68
2021/06/21 12:27:03;;;;;;;12.55;3.30;;;16.70;99.90;;;;;;5035545;28;20137;-68
2021/06/21 12:29:31;;;;;;;10.98;3.75;;;16.70;99.90;;;;;;5036642;28;20123;-68
2021/06/21 12:32:05;;;;;;;12.70;4.40;;;16.70;99.90;;;;;;5035028;28;20070;-68
2021/06/21 12:34:41;;;;;;;9.50;3.97;;;16.60;99.90;;;;;;5036486;28;20365;-68
2021/06/21 12:37:24;;;;;;;15.90;3.90;;;16.60;99.90;;;;;;5009781;28;20021;-68
2021/06/21 12:40:11;;;;;;;13.07;3.78;;;16.60;99.90;;;;;;5036566;28;20028;-68
2021/06/21 12:42:37;;;;;;;14.23;3.88;;;16.60;99.90;;;;;;5017540;28;20321;-68
2021/06/21 12:45:10;;;;;;;14.07;3.97;;;16.70;99.90;;;;;;5035820;28;20554;-68
2021/06/21 12:47:36;;;;;;;12.48;3.92;;;16.70;99.90;;;;;;5038932;28;20315;-68
2021/06/21 12:50:07;;;;;;;12.57;3.95;;;16.80;99.90;;;;;;5041351;28;20522;-68
2021/06/21 12:52:34;;;;;;;15.20;4.45;;;16.80;99.90;;;;;;5040183;28;20024;-68
2021/06/21 12:55:06;;;;;;;12.88;4.70;;;16.80;99.90;;;;;;5039360;28;20392;-68